This is the latest recevied weather packets stored in our database for station/object DL6JOE-10. If no packets are shown the sender has not sent any weather packets the latest 10 day(s).
| Time | Temp. | Humidity | Pressure | Rain* | Wind** | Luminosity | Snow |
|---|---|---|---|---|---|---|---|
| 1788199964 | 26.11° C | 37% | 964.8 hPa | - | - | - | - |
| 1788198163 | 27.22° C | 35% | 964.6 hPa | - | - | - | - |
| 1788197263 | 27.78° C | 34% | 964.4 hPa | - | - | - | - |
| 1788196363 | 27.78° C | 32% | 964.2 hPa | - | - | - | - |
| 1788195463 | 27.78° C | 31% | 964 hPa | - | - | - | - |
| 1788193662 | 28.33° C | 32% | 963.7 hPa | - | - | - | - |
| 1788192762 | 28.33° C | 33% | 963.6 hPa | - | - | - | - |
| 1788189162 | 29.44° C | 32% | 963.3 hPa | - | - | - | - |
| 1788188262 | 30° C | 31% | 963.4 hPa | - | - | - | - |
| 1788187362 | 30° C | 31% | 963.5 hPa | - | - | - | - |
| 1788186462 | 30° C | 31% | 963.6 hPa | - | - | - | - |
| 1788185562 | 29.44° C | 31% | 963.7 hPa | - | - | - | - |
| 1788184662 | 29.44° C | 31% | 963.7 hPa | - | - | - | - |
| 1788183761 | 30° C | 31% | 963.8 hPa | - | - | - | - |
| 1788181961 | 30° C | 32% | 963.9 hPa | - | - | - | - |
| 1788181061 | 30° C | 32% | 964 hPa | - | - | - | - |
| 1788180161 | 30° C | 31% | 964.1 hPa | - | - | - | - |
| 1788179261 | 29.44° C | 32% | 964 hPa | - | - | - | - |
| 1788178361 | 29.44° C | 31% | 963.8 hPa | - | - | - | - |
| 1788176561 | 28.89° C | 34% | 964.1 hPa | - | - | - | - |
| 1788175661 | 28.33° C | 36% | 964.2 hPa | - | - | - | - |
| 1788174760 | 28.33° C | 36% | 964.1 hPa | - | - | - | - |
| 1788173860 | 27.78° C | 37% | 964.1 hPa | - | - | - | - |
| 1788172960 | 27.78° C | 37% | 964.1 hPa | - | - | - | - |
| 1788172060 | 27.78° C | 38% | 964.1 hPa | - | - | - | - |
* Rain since midnight (hover to see other rain measurements)
** Current wind speed in m/s (hover to see current wind gust speed)